Ocean Spirit of Moray — MVXF5 — position and weather

sailwx.info

Track history (hours):
 
Tides and Currents Weather Stations Pressure Air Temp Water Temp Dewpoint Dewpoint Depression Visibility Wind Speed Wind Dir Waves Ship Positions

Ocean Spirit of Moray (United Kingdom)

Ship's website: http://www.gordonstoun.org.uk/

Last reported at 2014-Jul-27 10:32 UTC. Time now 2014-Jul-30 13:12 UTC.
Position N 51°21' W 003°14'.

Length 24 m; draft 3 m.

Type: Sailing vessel. MMSI: 232007590.

Date/timePositionNaut miles runAvg speedWind from/ knotsBaromVisibWave heightAir tempDewpointWater temp
2014-Jul-27 10:32N 51°21' W 003°14'19 9.8
2014-Jul-27 08:33N 51°30' W 002°46'5 5.1
2014-Jul-27 07:33N 51°28' W 002°38'  
2014-Jul-24 17:22N 51°27' W 002°37'2 1.9
2014-Jul-24 16:33N 51°28' W 002°39'5 5.2
2014-Jul-24 15:33N 51°30' W 002°47'12 6.1
2014-Jul-24 13:31N 51°23' W 003°03'90 2.9
2014-Jul-23 06:26N 50°36' W 005°05'3 3.9
2014-Jul-23 05:33N 50°33' W 005°08'5 4.8
2014-Jul-23 04:33N 50°35' W 005°15'  
Track history (hours):
 
Tides and Currents Weather Stations Pressure Air Temp Water Temp Dewpoint Dewpoint Depression Visibility Wind Speed Wind Dir Waves Ship Positions

Ocean Spirit of Moray (United Kingdom)

Ship's website: http://www.gordonstoun.org.uk/

Last reported at 2014-Jul-27 10:32 UTC. Time now 2014-Jul-30 13:12 UTC.
Position N 51°21' W 003°14'.

Length 24 m; draft 3 m.

Type: Sailing vessel. MMSI: 232007590.

Date/timePositionNaut miles runAvg speedWind from/ knotsBaromVisibWave heightAir tempDewpointWater temp
2014-Jul-27 10:32N 51°21' W 003°14'19 9.8
2014-Jul-27 08:33N 51°30' W 002°46'5 5.1
2014-Jul-27 07:33N 51°28' W 002°38'  
2014-Jul-24 17:22N 51°27' W 002°37'2 1.9
2014-Jul-24 16:33N 51°28' W 002°39'5 5.2
2014-Jul-24 15:33N 51°30' W 002°47'12 6.1
2014-Jul-24 13:31N 51°23' W 003°03'90 2.9
2014-Jul-23 06:26N 50°36' W 005°05'3 3.9
2014-Jul-23 05:33N 50°33' W 005°08'5 4.8
2014-Jul-23 04:33N 50°35' W 005°15'  

Dump ship's entire track history